Time;durP1;ratioP1;P1;durP2;ratioP2;P2;SDS_P1;SDS_P2;PMS_P1;PMS_P2;Temp;Humidity;BMP_temperature;BMP_pressure;BME280_temperature;BME280_humidity;BME280_pressure;Samples;Min_cycle;Max_cycle;Signal;HPM_P1;HPM_P2
2022/08/04 00:00:59;;;;;;;7.47;4.10;;;;;;;25.68;51.05;101181.78;5026966;27;116157;-74
2022/08/04 00:03:32;;;;;;;8.48;4.00;;;;;;;25.64;51.16;101186.69;5024990;28;123776;-74
2022/08/04 00:06:20;;;;;;;7.20;3.92;;;;;;;25.60;50.95;101187.16;5009440;28;122977;-73
2022/08/04 00:08:49;;;;;;;6.38;3.90;;;;;;;25.57;50.90;101185.59;5020796;28;114108;-74
2022/08/04 00:11:26;;;;;;;8.00;4.33;;;;;;;25.52;51.03;101181.66;5028684;28;113521;-73
2022/08/04 00:14:03;;;;;;;7.35;4.30;;;;;;;25.45;51.08;101176.88;5012198;28;123928;-74
2022/08/04 00:16:36;;;;;;;5.72;3.85;;;;;;;25.40;51.49;101173.78;5022452;28;122754;-74
2022/08/04 00:19:10;;;;;;;7.30;4.30;;;;;;;25.35;51.30;101181.53;5025866;28;114314;-74
2022/08/04 00:21:40;;;;;;;6.47;4.35;;;;;;;25.33;51.56;101180.84;5025538;28;112941;-74
2022/08/04 00:24:10;;;;;;;8.25;4.50;;;;;;;25.28;51.77;101175.06;5017073;28;123907;-73
2022/08/04 00:26:39;;;;;;;10.32;4.55;;;;;;;25.23;51.71;101182.81;5023985;28;123801;-74
2022/08/04 00:29:07;;;;;;;7.10;4.22;;;;;;;25.20;51.95;101183.09;5011044;28;112706;-74
2022/08/04 00:31:35;;;;;;;8.00;4.53;;;;;;;25.16;51.82;101181.69;5025354;28;114782;-74
2022/08/04 00:34:27;;;;;;;8.98;4.40;;;;;;;25.14;52.20;101172.88;5012810;28;123849;-72
2022/08/04 00:36:55;;;;;;;9.30;4.53;;;;;;;25.13;52.04;101163.03;5024796;28;124541;-73
2022/08/04 00:39:23;;;;;;;8.25;4.50;;;;;;;25.11;52.15;101168.63;5026764;28;115248;-72
2022/08/04 00:42:09;;;;;;;6.88;4.35;;;;;;;25.08;51.90;101162.66;5026581;28;113924;-73
2022/08/04 00:45:01;;;;;;;6.75;4.35;;;;;;;25.04;51.82;101162.97;5025226;28;124482;-73
2022/08/04 00:47:55;;;;;;;7.05;4.05;;;;;;;25.00;52.10;101161.59;5029482;28;124437;-72
2022/08/04 00:50:45;;;;;;;5.07;3.80;;;;;;;25.00;52.05;101153.44;5025238;28;115631;-72
2022/08/04 00:53:55;;;;;;;8.02;4.05;;;;;;;24.97;51.81;101161.88;5019634;28;114606;-72
2022/08/04 00:56:35;;;;;;;9.40;4.15;;;;;;;24.95;51.65;101153.06;5017866;28;124472;-73
2022/08/04 00:59:09;;;;;;;5.95;4.03;;;;;;;24.94;51.91;101159.50;5021902;28;123614;-73
2022/08/04 01:01:39;;;;;;;6.80;4.40;;;;;;;24.92;52.18;101153.38;4996777;28;112355;-73
2022/08/04 01:04:19;;;;;;;9.32;4.28;;;;;;;24.90;52.12;101160.78;5022243;28;115561;-73
2022/08/04 01:07:35;;;;;;;7.53;3.78;;;;;;;24.87;52.06;101150.28;5022760;28;123059;-73
2022/08/04 01:10:07;;;;;;;9.15;4.20;;;;;;;24.86;51.96;101148.56;4992997;28;123477;-73
2022/08/04 01:13:22;;;;;;;7.80;3.88;;;;;;;24.84;52.17;101145.16;5028815;28;112975;-73
2022/08/04 01:16:07;;;;;;;8.13;3.92;;;;;;;24.78;51.91;101138.50;5028321;28;114436;-73
2022/08/04 01:19:00;;;;;;;10.97;4.37;;;;;;;24.75;52.17;101140.66;5023026;28;123917;-73
2022/08/04 01:22:14;;;;;;;5.60;4.00;;;;;;;24.71;52.17;101133.88;5026990;28;123982;-73
2022/08/04 01:24:44;;;;;;;6.43;3.92;;;;;;;24.67;52.14;101122.47;5025215;28;113828;-73
2022/08/04 01:27:26;;;;;;;8.38;4.00;;;;;;;24.64;52.40;101134.50;5022728;28;113659;-73
2022/08/04 01:30:00;;;;;;;5.43;3.80;;;;;;;24.62;52.35;101136.50;5021940;28;125023;-73
2022/08/04 01:33:05;;;;;;;6.07;4.00;;;;;;;24.58;52.10;101129.69;5027663;28;126887;-73
2022/08/04 01:35:47;;;;;;;8.25;3.70;;;;;;;24.55;52.21;101124.56;5023531;27;113870;-73
2022/08/04 01:38:36;;;;;;;6.18;3.58;;;;;;;24.50;52.31;101126.84;5022702;28;113874;-73
2022/08/04 01:41:08;;;;;;;6.88;3.65;;;;;;;24.49;52.61;101122.47;5022412;28;124625;-73
2022/08/04 01:43:40;;;;;;;7.80;3.72;;;;;;;24.49;52.67;101122.47;5025462;28;124325;-73
2022/08/04 01:46:10;;;;;;;8.32;3.75;;;;;;;24.49;52.72;101114.34;5020545;28;114221;-72
2022/08/04 01:48:39;;;;;;;5.55;3.72;;;;;;;24.48;52.61;101118.03;5023781;28;114588;-73
2022/08/04 01:51:08;;;;;;;8.27;3.65;;;;;;;24.48;52.62;101120.75;5024386;28;123209;-73
2022/08/04 01:53:40;;;;;;;5.38;3.90;;;;;;;24.47;52.63;101124.47;5026681;28;123720;-73
2022/08/04 01:56:09;;;;;;;9.90;4.10;;;;;;;24.46;52.57;101114.63;5024235;28;113281;-73
2022/08/04 01:58:37;;;;;;;9.60;4.18;;;;;;;24.44;52.39;101111.22;5028057;28;114305;-73
2022/08/04 02:01:09;;;;;;;7.10;4.50;;;;;;;24.41;52.71;101116.94;5027955;28;124619;-73
2022/08/04 02:03:40;;;;;;;6.75;3.47;;;;;;;24.36;52.68;101109.28;5022790;28;122744;-73
2022/08/04 02:06:57;;;;;;;8.75;3.90;;;;;;;24.32;52.54;101117.84;5023799;28;115110;-73
2022/08/04 02:09:38;;;;;;;8.63;4.18;;;;;;;24.27;52.61;101104.78;5026105;27;114669;-73
2022/08/04 02:12:45;;;;;;;6.32;3.80;;;;;;;24.22;52.85;101107.97;5024748;28;123573;-73
2022/08/04 02:15:45;;;;;;;7.70;3.50;;;;;;;24.20;52.63;101109.94;5018040;28;124267;-73
2022/08/04 02:18:26;;;;;;;7.32;3.78;;;;;;;24.16;52.68;101103.13;5018911;28;113098;-73
2022/08/04 02:20:59;;;;;;;9.00;4.15;;;;;;;24.15;52.99;101098.75;5021631;28;113678;-73
2022/08/04 02:23:40;;;;;;;7.32;3.75;;;;;;;24.14;53.12;101094.31;5020644;28;122834;-73
2022/08/04 02:26:18;;;;;;;8.77;4.30;;;;;;;24.14;53.13;101093.47;5042199;27;124270;-73
2022/08/04 02:29:07;;;;;;;8.27;3.97;;;;;;;24.14;52.90;101099.72;4988798;28;113586;-73
2022/08/04 02:31:51;;;;;;;9.50;3.60;;;;;;;24.11;52.86;101094.63;5016965;28;114440;-73
2022/08/04 02:34:27;;;;;;;7.13;3.88;;;;;;;24.08;52.91;101089.53;5019619;28;123805;-73
2022/08/04 02:36:55;;;;;;;7.63;4.05;;;;;;;24.06;52.86;101091.53;5021669;28;122995;-73
2022/08/04 02:39:27;;;;;;;7.05;4.00;;;;;;;24.04;53.15;101088.13;5023922;27;114472;-73
2022/08/04 02:41:58;;;;;;;7.97;4.05;;;;;;;24.03;53.13;101081.00;5027005;28;114650;-73
2022/08/04 02:44:27;;;;;;;12.63;3.90;;;;;;;24.02;53.13;101090.97;5025279;28;123353;-73
2022/08/04 02:46:54;;;;;;;6.88;3.72;;;;;;;24.01;53.02;101088.41;5025319;28;124426;-73
2022/08/04 02:49:22;;;;;;;10.68;3.88;;;;;;;23.97;53.39;101074.34;5022222;28;114612;-73
2022/08/04 02:51:55;;;;;;;8.38;3.97;;;;;;;23.94;53.47;101077.34;5021034;28;113795;-73
2022/08/04 02:54:27;;;;;;;8.15;3.92;;;;;;;23.90;53.32;101076.81;5006980;27;123225;-73
2022/08/04 02:57:01;;;;;;;10.48;3.72;;;;;;;23.89;53.27;101068.84;5022055;28;124163;-73
2022/08/04 03:00:00;;;;;;;5.25;3.80;;;;;;;23.86;53.23;101069.97;5024493;28;114203;-73
2022/08/04 03:02:37;;;;;;;8.65;4.10;;;;;;;23.82;53.58;101068.56;5026731;27;113586;-73
2022/08/04 03:05:15;;;;;;;8.07;4.20;;;;;;;23.82;53.48;101068.56;5019965;28;124659;-73
2022/08/04 03:08:06;;;;;;;11.63;4.93;;;;;;;23.82;53.25;101073.13;5020230;28;123965;-73
2022/08/04 03:10:52;;;;;;;12.05;4.30;;;;;;;23.79;53.46;101074.31;5035834;27;114088;-73
2022/08/04 03:13:56;;;;;;;9.05;3.85;;;;;;;23.74;53.19;101071.16;5027169;28;114258;-73
2022/08/04 03:16:34;;;;;;;12.35;4.18;;;;;;;23.70;53.37;101069.75;5020449;28;123712;-73
2022/08/04 03:19:27;;;;;;;8.93;4.55;;;;;;;23.67;53.37;101070.03;4993669;28;122898;-73
2022/08/04 03:22:08;;;;;;;9.65;4.13;;;;;;;23.65;53.51;101066.63;5012342;28;113974;-73
2022/08/04 03:25:13;;;;;;;9.40;3.90;;;;;;;23.63;53.39;101068.63;5006707;27;113158;-73
2022/08/04 03:28:01;;;;;;;7.97;3.88;;;;;;;23.61;53.45;101065.22;5024761;28;123144;-73
2022/08/04 03:30:52;;;;;;;10.68;4.35;;;;;;;23.58;53.37;101060.13;5034523;27;124649;-73
2022/08/04 03:33:35;;;;;;;8.00;4.13;;;;;;;23.57;53.46;101063.84;5017531;28;115017;-73
2022/08/04 03:36:02;;;;;;;8.13;3.65;;;;;;;23.54;53.57;101053.31;5020104;28;115397;-73
2022/08/04 03:38:41;;;;;;;10.38;4.03;;;;;;;23.52;53.60;101051.59;5025417;28;124338;-73
2022/08/04 03:41:47;;;;;;;5.78;4.00;;;;;;;23.50;53.53;101053.59;5021261;28;122755;-73
2022/08/04 03:44:39;;;;;;;12.20;4.30;;;;;;;23.49;53.66;101054.59;5023307;28;113958;-73
2022/08/04 03:47:09;;;;;;;7.57;4.10;;;;;;;23.48;53.85;101047.47;5025567;28;113527;-73
2022/08/04 03:49:51;;;;;;;7.22;3.90;;;;;;;23.48;53.84;101055.59;5021191;28;123872;-73
2022/08/04 03:53:09;;;;;;;7.70;3.95;;;;;;;23.46;53.93;101051.34;5022028;27;124179;-73
2022/08/04 03:55:58;;;;;;;8.77;3.88;;;;;;;23.46;53.95;101045.94;5015115;28;114064;-73
2022/08/04 03:58:54;;;;;;;9.25;4.20;;;;;;;23.44;53.91;101048.78;5016778;28;114442;-73
2022/08/04 04:01:43;;;;;;;8.48;4.45;;;;;;;23.42;53.97;101045.38;4998286;28;123460;-73
2022/08/04 04:04:37;;;;;;;7.55;4.38;;;;;;;23.42;53.86;101045.38;5035164;27;122635;-73
2022/08/04 04:07:24;;;;;;;7.65;4.47;;;;;;;23.42;54.07;101039.97;5019520;28;114659;-73
2022/08/04 04:10:14;;;;;;;8.20;4.10;;;;;;;23.39;54.19;101040.25;5021872;28;113435;-73
2022/08/04 04:12:51;;;;;;;9.02;4.20;;;;;;;23.37;54.19;101031.44;5018777;28;123734;-73
2022/08/04 04:15:39;;;;;;;8.73;4.32;;;;;;;23.35;54.15;101038.84;5022990;27;123976;-73
2022/08/04 04:18:22;;;;;;;9.00;4.05;;;;;;;23.33;54.41;101035.44;5018019;28;114340;-73
2022/08/04 04:20:57;;;;;;;13.35;4.45;;;;;;;23.31;54.38;101037.44;5022731;28;113722;-73
2022/08/04 04:23:54;;;;;;;12.85;4.53;;;;;;;23.29;54.47;101034.03;5021871;28;124016;-72
2022/08/04 04:26:28;;;;;;;12.43;4.90;;;;;;;23.29;54.47;101034.03;5018033;28;122704;-73
2022/08/04 04:29:01;;;;;;;12.60;4.25;;;;;;;23.29;54.57;101028.63;5030402;27;114454;-73
2022/08/04 04:31:51;;;;;;;13.40;4.10;;;;;;;23.30;54.62;101030.31;5025341;28;114935;-73
2022/08/04 04:34:34;;;;;;;6.68;4.07;;;;;;;23.32;54.63;101034.59;5032329;28;124031;-73
2022/08/04 04:37:29;;;;;;;10.80;4.43;;;;;;;23.33;54.59;101035.44;5043715;28;122810;-72
2022/08/04 04:40:42;;;;;;;7.78;4.00;;;;;;;23.34;54.63;101037.16;5020909;28;111993;-72
2022/08/04 04:43:27;;;;;;;8.48;4.00;;;;;;;23.37;54.57;101042.25;5034758;28;113689;-73
2022/08/04 04:46:26;;;;;;;8.70;3.90;;;;;;;23.41;54.40;101054.47;5023135;27;124402;-73
2022/08/04 04:49:01;;;;;;;9.77;3.85;;;;;;;23.42;54.79;101064.31;5011369;28;123610;-73
2022/08/04 04:51:48;;;;;;;8.18;4.07;;;;;;;23.42;54.67;101067.00;5018001;28;113145;-73
2022/08/04 04:54:50;;;;;;;8.15;3.90;;;;;;;23.44;54.66;101065.00;5026430;28;112329;-73
2022/08/04 04:57:20;;;;;;;8.27;4.32;;;;;;;23.47;54.95;101059.31;5020894;28;122485;-73
2022/08/04 05:00:10;;;;;;;6.55;4.00;;;;;;;23.55;54.84;101060.44;5024580;28;123861;-73
2022/08/04 05:02:59;;;;;;;9.60;4.30;;;;;;;23.62;54.84;101083.16;5028005;28;113328;-73
2022/08/04 05:06:02;;;;;;;6.72;3.85;;;;;;;23.67;54.93;101091.69;5024000;28;112919;-73
2022/08/04 05:09:08;;;;;;;7.47;3.85;;;;;;;23.72;54.72;101089.38;5021045;28;123769;-72
2022/08/04 05:11:51;;;;;;;9.10;3.88;;;;;;;23.80;54.86;101091.38;5027926;28;124296;-73
2022/08/04 05:14:27;;;;;;;10.68;4.03;;;;;;;23.88;54.75;101103.16;5027786;27;113944;-72
2022/08/04 05:17:31;;;;;;;6.32;4.20;;;;;;;23.98;54.75;101099.53;5026298;28;114626;-72
2022/08/04 05:20:18;;;;;;;8.77;3.60;;;;;;;24.08;54.54;101089.53;5022397;28;124703;-72
2022/08/04 05:23:02;;;;;;;7.80;3.88;;;;;;;24.22;54.41;101091.72;5027247;28;123016;-73
2022/08/04 05:25:37;;;;;;;7.30;3.75;;;;;;;24.35;54.43;101095.91;5021800;28;115478;-72
2022/08/04 05:28:11;;;;;;;7.93;4.22;;;;;;;24.47;54.48;101089.28;5009177;28;113793;-72
2022/08/04 05:30:47;;;;;;;9.07;4.00;;;;;;;24.58;54.40;101086.38;5023907;28;123348;-72
2022/08/04 05:33:21;;;;;;;6.18;3.90;;;;;;;24.70;54.30;101105.09;5022937;28;124230;-73
2022/08/04 05:35:59;;;;;;;7.32;3.90;;;;;;;24.79;54.25;101098.72;5019333;28;113746;-72
2022/08/04 05:38:52;;;;;;;9.10;4.45;;;;;;;24.91;54.15;101112.91;5023382;27;112197;-72
2022/08/04 05:41:21;;;;;;;9.90;4.10;;;;;;;25.01;54.09;101111.78;5025792;28;124514;-73
2022/08/04 05:43:49;;;;;;;9.23;3.85;;;;;;;25.09;54.17;101107.44;5023972;28;124541;-72
2022/08/04 05:46:17;;;;;;;10.10;4.70;;;;;;;25.17;54.00;101107.50;5024992;28;114350;-73
2022/08/04 05:48:46;;;;;;;10.32;4.63;;;;;;;25.26;53.79;101112.03;5027021;28;111942;-73
2022/08/04 05:51:15;;;;;;;9.02;4.10;;;;;;;25.33;53.60;101113.06;5019874;28;123896;-73
2022/08/04 05:53:43;;;;;;;7.65;4.22;;;;;;;25.43;53.44;101104.84;5027756;28;123963;-73
2022/08/04 05:56:12;;;;;;;8.30;4.18;;;;;;;25.51;53.47;101093.19;5024544;28;114554;-73
2022/08/04 05:58:41;;;;;;;11.02;4.63;;;;;;;25.61;53.16;101104.75;5023745;28;113274;-73
2022/08/04 06:01:10;;;;;;;9.73;3.85;;;;;;;25.69;53.09;101102.09;5021392;28;123370;-73
2022/08/04 06:03:38;;;;;;;12.38;4.70;;;;;;;25.79;53.11;101108.25;5024093;28;123681;-73
2022/08/04 06:06:08;;;;;;;12.50;4.55;;;;;;;25.88;52.79;101111.00;5022107;28;113981;-73
2022/08/04 06:08:35;;;;;;;9.45;4.55;;;;;;;25.95;52.49;101106.66;5040027;27;114715;-73
2022/08/04 06:11:08;;;;;;;9.32;5.03;;;;;;;26.03;52.55;101103.97;5025570;28;122956;-73
2022/08/04 06:13:42;;;;;;;8.93;4.60;;;;;;;26.12;52.63;101097.53;5037959;27;124124;-73
2022/08/04 06:16:22;;;;;;;8.82;4.60;;;;;;;26.23;52.80;101099.97;5016919;28;115241;-73
2022/08/04 06:19:02;;;;;;;9.38;4.65;;;;;;;26.34;52.47;101095.25;5004053;28;113753;-73
2022/08/04 06:21:52;;;;;;;8.68;4.68;;;;;;;26.47;52.40;101087.47;5021529;28;123479;-73
2022/08/04 06:24:24;;;;;;;11.35;5.10;;;;;;;26.59;52.27;101083.41;5021367;28;121795;-73
2022/08/04 06:26:52;;;;;;;10.05;5.10;;;;;;;26.70;52.35;101086.84;5009028;27;113201;-73
2022/08/04 06:29:35;;;;;;;9.30;5.10;;;;;;;26.79;51.83;101093.97;5023446;28;114924;-73
2022/08/04 06:32:23;;;;;;;10.70;5.35;;;;;;;26.90;51.30;101090.91;5018831;28;125305;-73
2022/08/04 06:35:03;;;;;;;10.00;5.75;;;;;;;26.99;51.38;101094.47;5014024;28;123808;-73
2022/08/04 06:37:31;;;;;;;10.90;6.65;;;;;;;27.07;51.31;101088.16;5021783;28;114211;-74
2022/08/04 06:40:12;;;;;;;9.70;5.78;;;;;;;27.16;51.05;101095.31;5029359;27;113966;-73
2022/08/04 06:43:01;;;;;;;9.52;5.78;;;;;;;27.28;51.16;101098.56;5029920;27;123192;-74
2022/08/04 06:45:29;;;;;;;12.10;6.30;;;;;;;27.37;50.81;101090.22;5011965;28;122980;-73
2022/08/04 06:47:58;;;;;;;10.32;6.32;;;;;;;27.50;50.81;101091.53;5020857;28;114917;-74
2022/08/04 06:50:25;;;;;;;12.43;6.13;;;;;;;27.62;50.69;101090.16;5005563;28;113725;-73
2022/08/04 06:53:13;;;;;;;10.60;5.93;;;;;;;27.76;49.97;101086.69;5006044;28;123993;-73
2022/08/04 06:55:45;;;;;;;10.15;6.18;;;;;;;27.91;50.14;101091.41;5010442;28;124150;-72
2022/08/04 06:58:14;;;;;;;12.88;6.15;;;;;;;28.07;49.89;101094.06;5024422;27;113349;-72
2022/08/04 07:00:44;;;;;;;11.80;6.13;;;;;;;28.25;49.88;101087.50;5008020;28;113912;-73
2022/08/04 07:03:13;;;;;;;9.45;5.47;;;;;;;28.43;50.05;101084.50;5000425;28;123620;-72
2022/08/04 07:05:41;;;;;;;11.68;6.18;;;;;;;28.62;49.69;101086.78;5024543;28;123744;-73
2022/08/04 07:08:11;;;;;;;13.18;6.05;;;;;;;28.83;48.82;101088.81;5025771;28;116287;-73
2022/08/04 07:10:39;;;;;;;9.07;5.57;;;;;;;29.03;48.42;101094.63;5026693;28;113877;-72
2022/08/04 07:13:08;;;;;;;8.63;5.07;;;;;;;29.23;48.03;101094.94;5021445;28;123359;-73
2022/08/04 07:15:37;;;;;;;8.05;4.78;;;;;;;29.41;47.61;101107.41;5017417;28;123327;-73
2022/08/04 07:18:05;;;;;;;8.93;4.57;;;;;;;29.58;47.10;101098.00;5017914;28;113574;-73
2022/08/04 07:20:32;;;;;;;11.77;5.45;;;;;;;29.71;46.89;101102.81;4997182;28;112507;-73
2022/08/04 07:23:04;;;;;;;10.00;4.80;;;;;;;29.85;47.04;101109.31;5007770;28;124020;-73
2022/08/04 07:25:34;;;;;;;9.52;3.40;;;;;;;29.96;45.71;101100.63;4997085;28;123232;-74
2022/08/04 07:28:28;;;;;;;10.27;3.80;;;;;;;30.04;45.40;101094.22;5011064;28;113483;-74
2022/08/04 07:30:57;;;;;;;6.85;3.35;;;;;;;30.16;45.68;101094.56;5013493;28;113922;-72
2022/08/04 07:33:26;;;;;;;9.65;3.70;;;;;;;30.26;45.47;101090.50;5012131;28;122895;-72
2022/08/04 07:35:55;;;;;;;9.02;3.50;;;;;;;30.41;45.47;101095.09;5002792;28;123787;-73
2022/08/04 07:38:39;;;;;;;6.63;3.40;;;;;;;30.55;45.01;101090.63;4997053;28;115647;-73
2022/08/04 07:41:24;;;;;;;8.48;3.67;;;;;;;30.69;44.87;101097.91;5019617;28;114087;-72
2022/08/04 07:44:09;;;;;;;9.43;3.80;;;;;;;30.82;44.70;101095.31;5004366;28;124373;-73
2022/08/04 07:46:36;;;;;;;9.57;4.53;;;;;;;30.92;44.54;101094.16;5010975;28;124763;-73
2022/08/04 07:49:05;;;;;;;7.55;4.20;;;;;;;31.02;43.91;101094.66;5021222;28;114394;-73
2022/08/04 07:51:34;;;;;;;8.85;3.90;;;;;;;31.12;43.98;101095.16;5024960;28;113732;-72
2022/08/04 07:54:04;;;;;;;10.85;4.82;;;;;;;31.19;43.07;101093.34;5023886;28;124416;-72
2022/08/04 07:56:34;;;;;;;9.80;4.70;;;;;;;31.24;43.43;101109.97;5020151;28;124797;-72
2022/08/04 07:59:02;;;;;;;8.77;4.47;;;;;;;31.29;43.32;101100.31;5020602;28;115593;-73
2022/08/04 08:01:30;;;;;;;8.57;4.88;;;;;;;31.32;42.75;101105.41;5019019;28;115780;-73
2022/08/04 08:03:59;;;;;;;9.07;4.70;;;;;;;31.31;42.36;101109.19;5008917;28;123666;-74
2022/08/04 08:06:28;;;;;;;8.73;4.65;;;;;;;31.32;42.63;101111.72;5020291;28;124430;-74
2022/08/04 08:09:07;;;;;;;11.38;5.43;;;;;;;31.35;42.83;101115.97;4994280;28;112814;-74
2022/08/04 08:11:45;;;;;;;14.30;5.38;;;;;;;31.38;42.67;101110.94;4992306;28;113537;-74
2022/08/04 08:14:34;;;;;;;10.63;4.50;;;;;;;31.39;42.45;101111.78;5005346;28;122827;-74
2022/08/04 08:17:02;;;;;;;9.70;4.78;;;;;;;31.40;42.30;101107.97;5012347;28;122964;-74
2022/08/04 08:19:31;;;;;;;11.02;4.88;;;;;;;31.43;42.36;101110.31;4994433;28;113659;-74
2022/08/04 08:21:59;;;;;;;12.45;4.55;;;;;;;31.50;42.52;101107.69;4998552;28;113922;-74
2022/08/04 08:24:29;;;;;;;13.98;4.90;;;;;;;31.61;42.11;101098.91;5009931;28;123817;-74
2022/08/04 08:26:58;;;;;;;10.65;5.10;;;;;;;31.72;42.05;101092.84;5010970;28;124655;-74
2022/08/04 08:29:28;;;;;;;8.63;4.38;;;;;;;31.86;42.51;101096.47;5012012;28;114062;-74
2022/08/04 08:31:56;;;;;;;7.55;4.20;;;;;;;31.99;42.44;101102.03;5013526;28;113895;-74
2022/08/04 08:34:30;;;;;;;10.23;4.35;;;;;;;32.15;41.87;101100.00;5027093;28;124289;-76
2022/08/04 08:37:03;;;;;;;10.43;3.83;;;;;;;32.28;41.55;101105.53;5009915;28;123519;-74
2022/08/04 08:39:56;;;;;;;11.02;4.40;;;;;;;32.45;42.00;101110.63;5004737;28;113908;-74
2022/08/04 08:42:50;;;;;;;8.00;3.58;;;;;;;32.62;41.45;101106.47;5019041;28;113815;-75
2022/08/04 08:45:33;;;;;;;10.93;3.50;;;;;;;32.73;40.65;101102.28;5001040;28;124251;-73
2022/08/04 08:48:37;;;;;;;9.75;3.53;;;;;;;32.81;40.50;101114.94;5004829;28;123305;-74
2022/08/04 08:51:30;;;;;;;8.18;2.85;;;;;;;32.91;40.40;101116.22;5005597;28;114702;-74
2022/08/04 08:54:24;;;;;;;6.05;3.03;;;;;;;33.02;40.08;101117.50;5010272;28;114786;-74
2022/08/04 08:57:14;;;;;;;6.47;3.35;;;;;;;33.11;40.04;101113.47;4998531;28;124254;-74
2022/08/04 08:59:59;;;;;;;6.35;3.47;;;;;;;33.22;40.09;101116.66;4993928;28;123510;-73
2022/08/04 09:02:42;;;;;;;7.88;3.25;;;;;;;33.33;40.00;101116.00;5010066;28;114010;-74
2022/08/04 09:05:41;;;;;;;7.25;3.70;;;;;;;33.41;39.60;101118.53;5012180;28;113965;-74
2022/08/04 09:08:14;;;;;;;9.38;4.10;;;;;;;33.44;39.50;101120.84;5013824;28;124956;-74
2022/08/04 09:10:52;;;;;;;8.65;4.70;;;;;;;33.42;39.13;101117.47;5021511;28;125317;-75
2022/08/04 09:13:39;;;;;;;7.20;4.97;;;;;;;33.41;39.01;101121.28;5010267;28;114690;-74
2022/08/04 09:16:20;;;;;;;10.45;5.07;;;;;;;33.44;39.38;101136.50;5026410;28;113322;-74
2022/08/04 09:19:03;;;;;;;9.48;4.80;;;;;;;33.51;38.83;101135.44;5017201;27;123616;-75
2022/08/04 09:21:43;;;;;;;7.03;4.03;;;;;;;33.55;38.56;101128.44;5028431;28;124074;-74
2022/08/04 09:24:47;;;;;;;7.85;4.40;;;;;;;33.55;38.41;101139.44;5021005;28;113752;-74
2022/08/04 09:27:18;;;;;;;8.55;4.93;;;;;;;33.59;38.28;101137.09;5009260;28;113846;-74
2022/08/04 09:30:05;;;;;;;10.57;6.13;;;;;;;33.59;38.44;101148.09;5012761;28;123092;-74
2022/08/04 09:33:00;;;;;;;9.82;4.90;;;;;;;33.57;37.83;101141.97;5020609;28;123338;-74
2022/08/04 09:35:27;;;;;;;7.57;4.90;;;;;;;33.58;38.42;101149.13;5012387;28;112982;-74
2022/08/04 09:38:31;;;;;;;10.05;5.45;;;;;;;33.56;38.48;101146.59;5031092;28;114101;-74
2022/08/04 09:41:36;;;;;;;8.73;5.30;;;;;;;33.54;38.95;101148.72;5008565;27;122251;-75
2022/08/04 09:44:42;;;;;;;12.40;5.28;;;;;;;33.56;38.71;101152.09;5016403;28;124878;-74
2022/08/04 09:47:45;;;;;;;8.55;4.90;;;;;;;33.64;39.11;101158.44;5008736;28;113437;-73
2022/08/04 09:50:26;;;;;;;9.15;5.35;;;;;;;33.71;38.79;101151.03;5011677;28;114897;-73
2022/08/04 09:53:29;;;;;;;6.60;4.10;;;;;;;33.73;39.16;101152.50;5020287;28;122048;-73
2022/08/04 09:56:37;;;;;;;6.43;3.65;;;;;;;33.76;38.71;101167.75;5011931;28;123662;-75
2022/08/04 09:59:24;;;;;;;8.85;3.58;;;;;;;33.77;38.48;101165.81;5004494;28;114642;-75
2022/08/04 10:01:55;;;;;;;7.25;3.45;;;;;;;33.78;38.67;101181.25;5021974;28;112710;-75
2022/08/04 10:04:30;;;;;;;6.03;2.88;;;;;;;33.77;37.90;101180.41;5004721;28;123726;-75
2022/08/04 10:07:26;;;;;;;5.57;2.88;;;;;;;33.70;37.92;101185.06;5012886;28;122637;-74
2022/08/04 10:10:02;;;;;;;7.45;2.78;;;;;;;33.62;37.84;101193.50;5008869;28;113585;-75
2022/08/04 10:12:41;;;;;;;6.38;2.40;;;;;;;33.54;38.31;101187.16;5010292;28;113855;-75
2022/08/04 10:15:12;;;;;;;6.60;2.50;;;;;;;33.46;37.85;101190.16;4992355;27;122664;-74
2022/08/04 10:17:58;;;;;;;4.63;2.80;;;;;;;33.28;37.56;101198.16;4997255;28;124857;-75
2022/08/04 10:20:57;;;;;;;4.63;2.20;;;;;;;33.05;37.78;101193.91;5029487;28;114604;-75
2022/08/04 10:24:00;;;;;;;7.35;2.35;;;;;;;32.84;38.08;101202.31;5020127;28;115028;-75
2022/08/04 10:26:32;;;;;;;6.68;2.35;;;;;;;32.62;37.91;101218.91;5010253;28;123745;-75
2022/08/04 10:29:13;;;;;;;5.32;1.88;;;;;;;32.39;38.36;101228.28;5017654;28;123637;-75
2022/08/04 10:31:48;;;;;;;5.05;2.25;;;;;;;32.22;38.38;101226.13;5012658;28;114843;-74
2022/08/04 10:34:21;;;;;;;4.80;2.10;;;;;;;32.01;38.39;101223.22;5018107;27;112478;-75
2022/08/04 10:36:57;;;;;;;6.70;2.10;;;;;;;31.85;38.67;101248.19;5006760;27;123068;-74
2022/08/04 10:39:35;;;;;;;4.53;2.20;;;;;;;31.69;38.87;101259.47;5009897;28;125225;-74
2022/08/04 10:42:29;;;;;;;5.18;1.73;;;;;;;31.54;38.88;101263.13;5016699;28;114539;-75
2022/08/04 10:45:21;;;;;;;5.68;2.10;;;;;;;31.36;39.54;101260.84;5005793;28;113050;-75
2022/08/04 10:48:06;;;;;;;5.40;2.05;;;;;;;31.17;39.92;101281.47;5010832;28;122265;-74
2022/08/04 10:50:41;;;;;;;7.35;2.20;;;;;;;30.94;40.87;101313.66;5015782;27;123976;-75
2022/08/04 10:53:16;;;;;;;7.47;2.05;;;;;;;30.71;41.70;101300.91;5010729;28;114245;-74
2022/08/04 10:56:01;;;;;;;7.80;2.50;;;;;;;30.46;42.08;101309.44;5013997;28;113763;-75
2022/08/04 10:58:41;;;;;;;6.40;2.42;;;;;;;30.23;42.94;101297.69;4997134;28;124161;-74
2022/08/04 11:01:28;;;;;;;5.82;2.00;;;;;;;29.97;43.24;101293.56;5007694;28;123612;-74
2022/08/04 11:04:41;;;;;;;6.45;2.53;;;;;;;29.68;43.77;101297.84;5019901;28;113954;-74
2022/08/04 11:07:11;;;;;;;7.55;2.33;;;;;;;29.43;44.83;101286.31;5026385;28;114655;-74
2022/08/04 11:09:41;;;;;;;9.30;2.50;;;;;;;29.26;45.60;101273.81;5020688;28;122727;-74
2022/08/04 11:12:15;;;;;;;6.20;2.45;;;;;;;29.10;46.29;101247.47;5023654;28;123809;-74
2022/08/04 11:14:54;;;;;;;7.03;2.75;;;;;;;29.00;46.69;101230.50;5017985;28;114195;-74
2022/08/04 11:17:28;;;;;;;7.15;2.92;;;;;;;28.91;47.72;101216.94;5020324;28;113994;-74
2022/08/04 11:20:15;;;;;;;4.88;2.80;;;;;;;28.88;47.79;101211.81;5015644;28;124196;-74
2022/08/04 11:23:14;;;;;;;6.75;2.78;;;;;;;28.86;48.17;101216.63;5017044;28;125876;-74
2022/08/04 11:26:06;;;;;;;8.30;3.25;;;;;;;28.89;48.70;101224.41;5018625;28;113510;-74
2022/08/04 11:28:50;;;;;;;7.35;3.85;;;;;;;28.96;49.38;101234.63;5022705;28;114616;-74
2022/08/04 11:31:32;;;;;;;6.75;3.60;;;;;;;29.00;49.01;101235.94;5025969;28;123332;-74
2022/08/04 11:34:22;;;;;;;6.88;3.70;;;;;;;29.05;49.36;101244.44;5012447;28;125278;-74
2022/08/04 11:37:21;;;;;;;6.70;3.63;;;;;;;29.05;49.38;101253.47;5007928;28;115359;-74
2022/08/04 11:39:56;;;;;;;8.20;4.25;;;;;;;29.04;49.22;101270.00;4980780;28;114667;-74
2022/08/04 11:42:39;;;;;;;5.95;3.30;;;;;;;28.96;49.11;101267.34;5001844;28;122995;-74
2022/08/04 11:45:12;;;;;;;7.80;3.50;;;;;;;28.88;49.56;101266.34;5010407;28;123072;-74
2022/08/04 11:47:54;;;;;;;6.93;3.20;;;;;;;28.83;49.53;101268.75;5009038;28;114053;-73
2022/08/04 11:50:31;;;;;;;6.97;3.10;;;;;;;28.73;49.18;101257.25;5012546;28;113864;-73
2022/08/04 11:53:01;;;;;;;7.82;3.10;;;;;;;28.62;49.17;101238.56;5009765;28;123742;-73
2022/08/04 11:55:31;;;;;;;7.28;2.67;;;;;;;28.55;49.48;101238.41;5010801;28;124007;-73
2022/08/04 11:58:20;;;;;;;6.38;2.30;;;;;;;28.57;50.02;101240.97;5014247;28;114201;-74
2022/08/04 12:01:22;;;;;;;4.60;1.92;;;;;;;28.67;49.55;101249.75;5010077;28;112770;-73
2022/08/04 12:04:04;;;;;;;4.80;1.67;;;;;;;28.76;49.39;101251.41;5010984;28;124210;-74
2022/08/04 12:06:41;;;;;;;7.35;1.70;;;;;;;28.84;48.42;101245.94;5024851;27;123621;-74
2022/08/04 12:09:47;;;;;;;3.50;1.40;;;;;;;28.96;47.98;101250.97;5010214;28;113800;-74
2022/08/04 12:12:33;;;;;;;4.93;1.40;;;;;;;29.07;47.49;101243.22;4994536;28;113316;-74
2022/08/04 12:15:15;;;;;;;3.85;1.73;;;;;;;29.18;46.91;101247.44;5010339;28;124784;-76
2022/08/04 12:17:56;;;;;;;4.18;1.80;;;;;;;29.28;46.30;101250.78;5011805;28;124350;-73